Terminal Aerodrome Forecast
Issued by NWS

Home | Current Version | Previous Version | Text Only | Print | Product List | Glossary On
Versions: 1 2 3 4 5 6 7 8 9 10 11 12 13 14 15 16 17 18 19 20 21 22 23 24 25 26 27 28 29 30 31 32 33
000
FTUS45 KGJT 301142
TAFASE
TAF
KASE 301142Z 3012/3112 VRB03KT P6SM SCT080
     FM301800 35006KT P6SM -TSRA SCT050CB BKN090
     FM302200 36008KT 5SM TSRA SCT035 BKN050CB
     FM310100 15003KT 6SM -RA BR OVC050
     FM310600 21004KT P6SM VCSH SCT050 BKN080=

USA.gov is the U.S. government's official web portal to all federal, state and local government web resources and services.